Eden Mills, Vermont
Current Conditions -  °F | °C
As of 12:54 AM on Sunday 26 Oct 2014 (Local Time) from KMVL Reporting Station
Broken Clouds Broken Clouds  
Wind Chill: 11°   Ceiling: 8000
Heat Index: 11°   Visibility: 10mi
Dew Point:   Wind: 0mph
Humidity: 77%   Direction: NA
Pressure: 29.44"   Gusts: NA
Location:  44.71°N, 72.55°W
Report Text: KMVL 260454Z AUTO 00000KT 10SM FEW041 FEW055 BKN080 11/07 A2944 RMK AO2 SLP971 T01060067 401561006
Loading
Personal Weather Stations






























Interactive Weather Map
Tropical Storm Tracking
New forecast layout! Learn more

10-Day Weather Forecast

Advertisements
Track Severe Weather on mobile